SARC/CNQ METAR and TAF weather

Enter ICAO airport designator
Station Type Date Time Source
SARC METAR 2021/06/24 05:00 UTC NOAA

SARC 240500Z 18002KT 8000 -TSRA SCT005 OVC045 FEW056CB 18/17 Q1004


Station Type Date Time Source
SARC Decoded METAR 2021/06/24 05:00 UTC NOAA

Corrientes Aero., Argentina (SARC) 27-27S 058-46W 62M
Jun 24, 2021 - 01:00 AM EDT / 2021.06.24 0500 UTC
Wind: from the S (180 degrees) at 2 MPH (2 KT):0
Visibility: 4 mile(s):0
Sky conditions: overcast
Weather: light rain with thunder; Cumulonimbus clouds observed
Temperature: 64 F (18 C)
Dew Point: 62 F (17 C)
Relative Humidity: 93%
Pressure (altimeter): 29.65 in. Hg (1004 hPa)
ob: SARC 240500Z 18002KT 8000 -TSRA SCT005 OVC045 FEW056CB 18/17 Q1004
cycle: 5

Station Type Date Time Source
SARC TAF 2021/06/15 16:09 UTC NOAA

TAF TAF
AMD SARC 151500Z 1516/1612 16010KT 9999 OVC008 TX18/1519Z TN08/1610Z
BECMG 1520/1522 BKN020
BECMG 1601/1603 SCT025 SCT100 PROB30 1608/1612 VRB03KT 3000 BR BKN010

Example: see airport list